Flight Track Log - Related Links

Times and Time Zones

All times are in EST time to prevent confusion due to time zone crossing. See the SKW6345 flight status page for this flight to view local times or setup timezone preferences in your user account.

Time Position Orientation Groundspeed Altitude Reporting Facility
EST Latitude Longitude Course Direction KTS MPH feet Rate Location/Type
Sun 12:39:36 PM 39.2467 -106.8708 101° East 165 190 25,000  Level Denver Center
Sun 12:40:38 PM 39.2756 -106.9381 299° West 231 266 11,300 -5,274 Descending Denver Center
Sun 12:41:40 PM 39.2972 -107.0206 289° West 236 272 14,100 2,516 Climbing Denver Center
Sun 12:42:00 PM 39.3333 -106.4255 90° East  Level FlightAware Approximate
Sun 12:42:42 PM 39.3494 -107.0483 338° Northwest 232 267 16,500  Level Denver Center
Sun 12:43:00 PM 39.3242 -106.3067 101° East  Level FlightAware Approximate
Sun 12:43:44 PM 39.3469 -106.9547 92° East 291 335 18,300  Level Denver Center
Sun 12:44:00 PM 39.3060 -106.1890 101° East  Level FlightAware Approximate
Sun 12:44:47 PM 39.3500 -106.8497 88° East 298 343 19,800  Level Denver Center
Sun 12:45:49 PM 39.3508 -106.7139 90° East 356 410 20,700 581 Climbing Denver Center
Sun 12:46:51 PM 39.3483 -106.5519 91° East 403 464 21,000 145 Climbing Denver Center
Sun 12:47:53 PM 39.3422 -106.4003 93° East 436 502 21,000  Level Denver Center
Sun 12:48:55 PM 39.3361 -106.2261 93° East 434 499 21,000  Level Denver Center
Sun 12:49:57 PM 39.3297 -106.0578 93° East 436 502 21,000  Level Denver Center
Sun 12:50:59 PM 39.3228 -105.9044 93° East 431 496 21,000  Level Denver Center
Sun 12:52:01 PM 39.3172 -105.7556 93° East 420 483 21,000 -145 Level Denver Center
Sun 12:53:03 PM 39.3267 -105.6383 84° East 333 383 20,700 -290 Descending Denver Center
Sun 12:54:05 PM 39.3736 -105.5322 60° Northeast 337 388 20,400 -832 Descending Denver Center
Sun 12:55:20 PM 39.4561 -105.3686 57° Northeast 399 459 18,800 -1,401 Descending Denver Center
Sun 12:56:22 PM 39.5158 -105.2519 56° Northeast 393 452 17,200 -1,306 Descending Denver Center
Sun 12:57:24 PM 39.5767 -105.1394 55° Northeast 384 442 16,100 -1,065 Descending Denver Center
Sun 12:58:26 PM 39.6383 -105.0186 56° Northeast 376 433 15,000 -1,016 Descending Denver Center
Sun 12:59:28 PM 39.6975 -104.9044 56° Northeast 381 438 14,000 -1,306 Descending Denver Center
Sun 01:00:30 PM 39.7853 -104.8414 29° Northeast 344 396 12,300 -1,452 Descending Denver Center
Sun 01:01:32 PM 39.8683 -104.8406 360° North 297 342 11,000 -681 Descending Denver Center
Sun 01:03:35 PM 40.0000 -104.8333 North 241 277 10,200 -623 Descending Denver TRACON
Sun 01:04:35 PM 40.0667 -104.8000 21° North 223 257 9,100 -1,150 Descending Denver TRACON
Sun 01:05:35 PM 40.0500 -104.7333 108° East 248 285 7,900 -842 Descending Denver TRACON
Sun 01:06:29 PM 40.0000 -104.7000 153° Southeast 221 254 7,500 -667 Descending Denver TRACON
Sun 01:07:23 PM 39.9667 -104.7000 180° South 154 177 6,700 -842 Descending Denver TRACON
Sun 01:08:23 PM 39.9167 -104.7000 180° South 138 159 5,900 -575 Descending Denver TRACON
Sun 01:09:49 PM 39.8750 -104.6967 176° South 119 137 5,300 -419 Descending Denver Center

Login

Don't have an account? Register now (free) for customized features, flight alerts, and more!